Time;durP1;ratioP1;P1;durP2;ratioP2;P2;SDS_P1;SDS_P2;PMS_P1;PMS_P2;Temp;Humidity;BMP_temperature;BMP_pressure;BME280_temperature;BME280_humidity;BME280_pressure;Samples;Min_cycle;Max_cycle;Signal;HPM_P1;HPM_P2
2022/07/19 00:02:24;;;;;;;17.17;15.80;;;24.20;14.70;;;;;;6215679;23;20457;-71
2022/07/19 00:04:50;;;;;;;16.70;15.80;;;24.10;14.80;;;;;;6214068;23;20720;-71
2022/07/19 00:07:16;;;;;;;16.57;15.67;;;24.20;14.90;;;;;;6214149;23;20156;-71
2022/07/19 00:09:41;;;;;;;16.73;15.90;;;24.20;15.10;;;;;;6213697;23;20601;-71
2022/07/19 00:12:07;;;;;;;16.10;15.30;;;24.10;15.30;;;;;;6213774;23;20171;-71
2022/07/19 00:14:33;;;;;;;15.50;14.90;;;24.10;15.60;;;;;;6213764;23;20148;-71
2022/07/19 00:16:59;;;;;;;15.60;14.80;;;24.10;15.30;;;;;;6213960;23;20874;-71
2022/07/19 00:19:25;;;;;;;16.37;15.50;;;24.10;15.80;;;;;;6213897;23;20186;-71
2022/07/19 00:21:50;;;;;;;16.17;15.27;;;24.00;15.80;;;;;;6216633;23;20179;-71
2022/07/19 00:24:16;;;;;;;16.57;15.87;;;24.00;15.70;;;;;;6215173;23;20162;-71
2022/07/19 00:26:43;;;;;;;17.33;16.00;;;24.00;15.60;;;;;;6213950;23;20163;-71
2022/07/19 00:29:08;;;;;;;16.53;15.53;;;24.00;15.50;;;;;;6213827;23;20179;-71
2022/07/19 00:31:34;;;;;;;16.57;15.63;;;24.00;15.80;;;;;;6213852;23;20836;-71
2022/07/19 00:34:01;;;;;;;17.07;16.17;;;24.00;15.80;;;;;;6213699;23;20159;-71
2022/07/19 00:36:26;;;;;;;15.87;15.10;;;23.90;15.70;;;;;;6213662;23;20167;-71
2022/07/19 00:38:52;;;;;;;17.03;15.93;;;23.90;15.70;;;;;;6213393;23;20905;-71
2022/07/19 00:41:18;;;;;;;16.60;15.90;;;23.90;15.70;;;;;;6213440;23;20199;-71
2022/07/19 00:43:44;;;;;;;16.37;15.43;;;23.90;15.80;;;;;;6213442;23;20149;-71
2022/07/19 00:46:15;;;;;;;16.37;15.57;;;23.70;16.30;;;;;;6213434;23;20226;-71
2022/07/19 00:48:41;;;;;;;16.30;15.40;;;23.60;16.50;;;;;;6213357;23;20156;-71
2022/07/19 00:51:10;;;;;;;16.40;15.60;;;23.70;16.50;;;;;;6213405;23;20737;-71
2022/07/19 00:53:40;;;;;;;16.00;15.13;;;23.70;16.50;;;;;;6214941;23;20398;-71
2022/07/19 00:56:08;;;;;;;16.20;15.27;;;23.70;16.40;;;;;;6213530;23;20410;-71
2022/07/19 00:58:35;;;;;;;16.87;16.03;;;23.80;16.20;;;;;;6213369;23;20427;-71
2022/07/19 01:01:03;;;;;;;16.50;15.70;;;23.70;16.50;;;;;;6213173;23;20383;-71
2022/07/19 01:03:29;;;;;;;16.80;16.07;;;23.70;16.50;;;;;;6213436;23;20387;-71
2022/07/19 01:05:55;;;;;;;16.57;15.87;;;23.70;16.50;;;;;;6213414;23;20379;-71
2022/07/19 01:08:21;;;;;;;16.60;15.83;;;23.70;16.60;;;;;;6213449;23;20697;-71
2022/07/19 01:10:47;;;;;;;17.07;16.20;;;23.70;16.50;;;;;;6213000;23;20389;-71
2022/07/19 01:13:13;;;;;;;16.73;15.93;;;23.70;16.80;;;;;;6213241;23;20615;-71
2022/07/19 01:15:41;;;;;;;18.00;16.90;;;23.50;17.40;;;;;;6213175;23;20158;-71
2022/07/19 01:18:07;;;;;;;16.47;15.37;;;23.30;17.60;;;;;;6213305;23;20856;-71
2022/07/19 01:20:33;;;;;;;16.47;15.80;;;23.40;17.40;;;;;;6212926;23;20387;-71
2022/07/19 01:22:59;;;;;;;16.80;15.80;;;23.40;17.30;;;;;;6213266;23;20844;-71
2022/07/19 01:25:29;;;;;;;17.67;16.50;;;23.40;17.30;;;;;;6213212;23;20383;-71
2022/07/19 01:27:55;;;;;;;17.00;16.20;;;23.40;17.40;;;;;;6213287;23;20847;-71
2022/07/19 01:30:24;;;;;;;16.20;15.30;;;23.40;17.50;;;;;;6212882;23;20449;-71
2022/07/19 01:32:51;;;;;;;17.07;16.17;;;23.40;17.40;;;;;;6213166;23;20387;-71
2022/07/19 01:35:18;;;;;;;16.43;15.23;;;23.40;17.70;;;;;;6213073;23;20844;-71
2022/07/19 01:37:44;;;;;;;17.30;16.30;;;23.40;17.30;;;;;;6213047;23;20387;-71
2022/07/19 01:40:12;;;;;;;16.40;15.20;;;23.40;17.20;;;;;;6212730;23;20505;-71
2022/07/19 01:42:38;;;;;;;15.70;15.00;;;23.40;17.30;;;;;;6212980;23;20387;-71
2022/07/19 01:45:06;;;;;;;15.93;15.17;;;23.40;17.30;;;;;;6213062;23;20398;-71
2022/07/19 01:47:32;;;;;;;15.60;14.90;;;23.50;17.20;;;;;;6213047;23;20375;-71
2022/07/19 01:49:58;;;;;;;16.83;15.80;;;23.30;17.80;;;;;;6212622;23;20444;-71
2022/07/19 01:52:23;;;;;;;15.77;15.03;;;23.30;18.00;;;;;;6212989;23;20470;-71
2022/07/19 01:54:49;;;;;;;16.57;15.60;;;23.30;18.00;;;;;;6212939;23;20160;-71
2022/07/19 01:57:15;;;;;;;16.80;16.00;;;23.30;17.80;;;;;;6212710;23;20242;-71
2022/07/19 01:59:41;;;;;;;16.63;15.93;;;23.20;18.00;;;;;;6213078;23;20640;-71
2022/07/19 02:02:07;;;;;;;17.03;16.17;;;23.20;18.00;;;;;;6212742;23;20161;-71
2022/07/19 02:04:32;;;;;;;16.97;16.27;;;23.30;18.00;;;;;;6212812;23;20158;-71
2022/07/19 02:06:58;;;;;;;16.90;16.20;;;23.30;17.90;;;;;;6212831;23;20379;-71
2022/07/19 02:09:24;;;;;;;16.80;16.00;;;23.30;17.90;;;;;;6212876;23;20593;-71
2022/07/19 02:11:50;;;;;;;16.30;15.60;;;23.30;18.20;;;;;;6212448;23;20819;-71
2022/07/19 02:14:16;;;;;;;16.70;15.90;;;23.30;18.10;;;;;;6213067;23;20155;-71
2022/07/19 02:16:42;;;;;;;16.20;15.37;;;23.20;18.40;;;;;;6212723;23;20151;-71
2022/07/19 02:19:08;;;;;;;16.00;15.40;;;23.20;18.30;;;;;;6212698;23;20199;-71
2022/07/19 02:21:35;;;;;;;16.60;15.70;;;23.20;18.40;;;;;;6212472;23;20383;-71
2022/07/19 02:24:01;;;;;;;15.90;15.10;;;23.20;18.40;;;;;;6212853;23;20202;-71
2022/07/19 02:26:27;;;;;;;16.67;15.87;;;23.10;18.50;;;;;;6212748;23;20391;-71
2022/07/19 02:28:53;;;;;;;17.43;16.47;;;23.10;18.60;;;;;;6212768;23;20394;-71
2022/07/19 02:31:20;;;;;;;16.67;15.67;;;23.00;18.70;;;;;;6212465;23;20875;-71
2022/07/19 02:33:46;;;;;;;16.77;15.87;;;22.90;18.80;;;;;;6212663;23;20178;-71
2022/07/19 02:36:12;;;;;;;17.10;16.00;;;22.90;18.90;;;;;;6212744;23;20456;-71
2022/07/19 02:38:38;;;;;;;17.57;16.53;;;23.00;18.70;;;;;;6212602;23;20522;-71
2022/07/19 02:41:04;;;;;;;17.30;16.40;;;23.00;18.60;;;;;;6212514;23;20383;-71
2022/07/19 02:43:29;;;;;;;16.70;15.90;;;23.10;18.30;;;;;;6212710;23;20729;-71
2022/07/19 02:45:55;;;;;;;17.40;16.50;;;23.10;18.30;;;;;;6212595;23;20383;-71
2022/07/19 02:48:21;;;;;;;16.40;15.70;;;23.10;18.40;;;;;;6212800;23;20149;-71
2022/07/19 02:50:46;;;;;;;17.43;16.43;;;23.10;18.10;;;;;;6212331;23;20601;-71
2022/07/19 02:53:12;;;;;;;17.67;16.87;;;23.00;18.10;;;;;;6212740;23;20152;-71
2022/07/19 02:55:38;;;;;;;17.40;16.60;;;23.00;18.10;;;;;;6212682;23;20539;-71
2022/07/19 02:58:04;;;;;;;17.50;16.53;;;23.10;18.20;;;;;;6212806;23;20466;-71
2022/07/19 03:00:30;;;;;;;17.30;16.50;;;23.10;18.30;;;;;;6212234;23;20325;-71
2022/07/19 03:03:43;;;;;;;17.07;16.30;;;23.00;18.40;;;;;;6213008;23;20473;-71
2022/07/19 03:05:47;;;;;;;19.60;17.90;;;22.90;18.80;;;;;;6213815;23;20474;-71
2022/07/19 03:08:13;;;;;;;17.70;16.90;;;22.90;18.70;;;;;;6213522;23;20386;-71
2022/07/19 03:10:38;;;;;;;18.10;17.20;;;23.00;18.80;;;;;;6214155;23;20387;-71
2022/07/19 03:13:04;;;;;;;18.80;17.60;;;22.90;18.80;;;;;;6214477;23;20172;-71
2022/07/19 03:15:30;;;;;;;17.53;16.77;;;22.90;18.90;;;;;;6239701;23;20187;-71
2022/07/19 03:17:56;;;;;;;18.40;17.40;;;22.60;19.20;;;;;;6214644;23;20159;-71
2022/07/19 03:20:21;;;;;;;18.67;17.77;;;22.60;19.60;;;;;;6214185;23;20202;-71
2022/07/19 03:22:47;;;;;;;19.47;18.27;;;22.60;19.70;;;;;;6214351;23;20163;-71
2022/07/19 03:25:13;;;;;;;17.40;16.57;;;22.60;19.70;;;;;;6214795;23;20159;-71
2022/07/19 03:27:39;;;;;;;18.10;17.30;;;22.70;19.40;;;;;;6214201;23;20159;-71
2022/07/19 03:30:05;;;;;;;17.63;16.83;;;22.70;19.20;;;;;;6216087;23;20160;-72
2022/07/19 03:32:31;;;;;;;17.90;17.10;;;22.80;19.30;;;;;;6216061;23;20156;-72
2022/07/19 03:34:57;;;;;;;18.60;17.80;;;22.70;19.30;;;;;;6215452;23;20394;-72
2022/07/19 03:37:23;;;;;;;18.10;17.30;;;22.70;19.40;;;;;;6215139;23;20456;-72
2022/07/19 03:39:49;;;;;;;18.90;17.70;;;22.70;19.20;;;;;;6215342;23;20556;-72
2022/07/19 03:42:15;;;;;;;17.80;16.90;;;22.70;19.20;;;;;;6216538;23;20155;-72
2022/07/19 03:44:40;;;;;;;19.37;18.40;;;22.50;19.80;;;;;;6214958;23;20208;-72
2022/07/19 03:47:06;;;;;;;18.30;17.30;;;22.50;19.70;;;;;;6215023;23;20387;-72
2022/07/19 03:49:32;;;;;;;18.90;17.87;;;22.40;19.80;;;;;;6216714;23;20159;-72
2022/07/19 03:51:58;;;;;;;18.20;17.30;;;22.40;20.00;;;;;;6214616;23;20210;-72
2022/07/19 03:54:23;;;;;;;18.63;17.60;;;22.50;19.80;;;;;;6215097;23;20156;-72
2022/07/19 03:56:49;;;;;;;18.93;18.03;;;22.50;19.60;;;;;;6214571;23;20156;-72
2022/07/19 03:59:15;;;;;;;17.60;16.70;;;22.50;19.80;;;;;;6214939;23;20603;-72
2022/07/19 04:01:41;;;;;;;20.17;19.20;;;22.40;20.10;;;;;;6214407;23;20383;-72
2022/07/19 04:04:07;;;;;;;20.63;19.50;;;22.40;20.00;;;;;;6214905;23;20387;-72
2022/07/19 04:06:33;;;;;;;19.70;18.70;;;22.40;19.90;;;;;;6214444;23;20558;-72
2022/07/19 04:08:58;;;;;;;19.73;18.70;;;22.40;20.00;;;;;;6216333;23;20148;-72
2022/07/19 04:11:24;;;;;;;19.40;18.30;;;22.30;20.00;;;;;;6213929;23;20160;-72
2022/07/19 04:13:50;;;;;;;18.53;17.73;;;22.40;19.90;;;;;;6212265;23;20176;-72
2022/07/19 04:16:16;;;;;;;18.93;18.23;;;22.40;20.00;;;;;;6214462;23;20393;-72
2022/07/19 04:18:42;;;;;;;21.53;19.63;;;22.40;19.80;;;;;;6213920;23;20187;-72
2022/07/19 04:21:08;;;;;;;20.63;19.20;;;22.30;20.20;;;;;;6213931;23;20820;-72
2022/07/19 04:23:34;;;;;;;19.47;18.40;;;22.30;20.30;;;;;;6214188;23;20593;-72
2022/07/19 04:25:59;;;;;;;20.13;19.23;;;22.30;20.30;;;;;;6214172;23;20152;-72
2022/07/19 04:28:25;;;;;;;20.17;19.07;;;22.30;20.30;;;;;;6214313;23;20174;-72
2022/07/19 04:30:51;;;;;;;18.87;17.87;;;22.30;20.10;;;;;;6214627;23;20199;-72
2022/07/19 04:33:20;;;;;;;19.87;18.67;;;22.40;20.10;;;;;;6214462;23;20210;-72
2022/07/19 04:35:46;;;;;;;19.63;18.53;;;22.20;20.20;;;;;;6214169;23;20152;-72
2022/07/19 04:38:12;;;;;;;18.57;17.60;;;22.30;20.30;;;;;;6213900;23;20379;-72
2022/07/19 04:40:39;;;;;;;19.10;18.20;;;22.30;20.40;;;;;;6214008;23;20415;-72
2022/07/19 04:43:05;;;;;;;19.57;18.20;;;22.30;20.40;;;;;;6214196;23;20380;-72
2022/07/19 04:45:30;;;;;;;18.27;17.07;;;22.30;20.50;;;;;;6214036;23;20766;-72
2022/07/19 04:47:56;;;;;;;19.53;18.63;;;22.30;20.60;;;;;;6214231;23;20894;-72
2022/07/19 04:50:23;;;;;;;19.37;18.17;;;22.40;20.40;;;;;;6213844;23;20160;-72
2022/07/19 04:52:48;;;;;;;18.80;17.90;;;22.50;20.30;;;;;;6213980;23;20395;-72
2022/07/19 04:55:14;;;;;;;20.27;19.33;;;22.40;20.40;;;;;;6213985;23;21039;-72
2022/07/19 04:57:40;;;;;;;21.40;20.23;;;22.30;20.70;;;;;;6214199;23;20585;-72
2022/07/19 05:00:11;;;;;;;20.60;19.50;;;22.30;20.90;;;;;;6213549;23;20452;-72
2022/07/19 05:02:38;;;;;;;19.10;18.30;;;22.30;20.80;;;;;;6213529;23;20167;-72
2022/07/19 05:05:05;;;;;;;19.90;18.90;;;22.30;20.70;;;;;;6213519;23;20449;-72
2022/07/19 05:07:31;;;;;;;19.83;18.83;;;22.40;20.30;;;;;;6213492;23;20403;-72
2022/07/19 05:09:57;;;;;;;19.90;18.97;;;22.50;20.50;;;;;;6213031;23;20398;-72
2022/07/19 05:12:23;;;;;;;20.87;19.90;;;22.50;20.60;;;;;;6213560;23;21027;-72
2022/07/19 05:14:49;;;;;;;21.60;20.30;;;22.40;20.80;;;;;;6214070;23;20398;-72
2022/07/19 05:17:15;;;;;;;21.23;19.60;;;22.40;20.80;;;;;;6213814;23;20155;-72
2022/07/19 05:19:41;;;;;;;21.77;20.07;;;22.40;20.70;;;;;;6213276;23;20259;-72
2022/07/19 05:22:07;;;;;;;20.40;19.50;;;22.50;20.70;;;;;;6213273;23;20470;-72
2022/07/19 05:24:33;;;;;;;19.77;18.73;;;22.60;20.30;;;;;;6213461;23;20391;-72
2022/07/19 05:26:59;;;;;;;20.77;19.80;;;22.60;20.00;;;;;;6215363;23;20732;-72
2022/07/19 05:29:25;;;;;;;20.37;19.23;;;22.60;20.00;;;;;;6213730;23;20487;-72
2022/07/19 05:31:50;;;;;;;21.10;19.90;;;22.70;19.90;;;;;;6212978;23;20422;-72
2022/07/19 05:34:16;;;;;;;22.03;20.03;;;22.70;19.60;;;;;;6213601;23;20192;-72
2022/07/19 05:36:42;;;;;;;21.07;20.07;;;22.70;19.80;;;;;;6212960;23;20164;-72
2022/07/19 05:39:08;;;;;;;20.63;19.63;;;22.60;19.50;;;;;;6212076;23;20180;-72
2022/07/19 05:41:33;;;;;;;20.37;19.47;;;22.40;19.80;;;;;;6212292;23;20235;-71
2022/07/19 05:43:59;;;;;;;22.20;20.97;;;22.30;19.90;;;;;;6212883;23;20183;-71
2022/07/19 05:46:25;;;;;;;21.77;20.60;;;22.40;19.80;;;;;;6212759;23;20582;-72
2022/07/19 05:48:51;;;;;;;21.20;20.20;;;22.50;19.60;;;;;;6212764;23;20499;-71
2022/07/19 05:51:17;;;;;;;22.53;21.33;;;22.60;19.80;;;;;;6212661;23;20375;-72
2022/07/19 05:53:43;;;;;;;20.93;19.73;;;22.70;19.30;;;;;;6212917;23;20210;-72
2022/07/19 05:56:09;;;;;;;19.50;18.60;;;22.80;19.30;;;;;;6214618;23;20506;-72
2022/07/19 05:58:35;;;;;;;20.57;19.57;;;22.80;19.30;;;;;;6212436;23;20427;-72
2022/07/19 06:01:17;;;;;;;19.30;18.50;;;22.80;19.30;;;;;;6212517;23;20410;-72
2022/07/19 06:03:44;;;;;;;20.10;19.00;;;22.90;19.20;;;;;;6212441;23;20716;-72
2022/07/19 06:06:10;;;;;;;20.83;19.80;;;23.00;19.40;;;;;;6212811;23;20844;-71
2022/07/19 06:08:36;;;;;;;20.63;19.53;;;23.00;19.10;;;;;;6214021;23;20380;-71
2022/07/19 06:11:01;;;;;;;20.80;19.87;;;23.10;18.90;;;;;;6212417;23;20391;-71
2022/07/19 06:13:27;;;;;;;20.67;19.77;;;23.10;18.80;;;;;;6212442;23;20185;-72
2022/07/19 06:15:53;;;;;;;20.23;19.00;;;23.10;18.70;;;;;;6212727;23;20186;-72
2022/07/19 06:18:19;;;;;;;19.33;18.43;;;23.20;18.70;;;;;;6212831;23;20187;-72
2022/07/19 06:20:45;;;;;;;20.20;19.10;;;23.20;18.60;;;;;;6212477;23;20533;-72
2022/07/19 06:23:10;;;;;;;20.97;19.57;;;23.30;18.70;;;;;;6212791;23;20152;-72
2022/07/19 06:25:36;;;;;;;18.93;18.03;;;23.30;18.40;;;;;;6212584;23;20152;-72
2022/07/19 06:28:03;;;;;;;20.13;19.07;;;23.40;18.30;;;;;;6212746;23;20178;-72
2022/07/19 06:30:28;;;;;;;19.63;18.40;;;23.40;18.00;;;;;;6213728;23;20375;-73
2022/07/19 06:32:54;;;;;;;20.10;19.20;;;23.40;17.70;;;;;;6213323;23;20386;-73
2022/07/19 06:35:20;;;;;;;19.70;18.63;;;23.50;17.40;;;;;;6215197;23;20160;-73
2022/07/19 06:37:46;;;;;;;18.23;17.40;;;23.50;17.40;;;;;;6214033;23;20414;-73
2022/07/19 06:40:12;;;;;;;18.73;17.30;;;23.50;17.40;;;;;;6214070;23;20422;-73
2022/07/19 06:42:38;;;;;;;19.20;18.03;;;23.60;17.40;;;;;;6213002;23;20402;-73
2022/07/19 06:45:05;;;;;;;18.23;17.43;;;23.60;17.30;;;;;;6214575;23;20604;-73
2022/07/19 06:47:32;;;;;;;18.97;17.93;;;23.70;16.90;;;;;;6214568;23;20156;-73
2022/07/19 06:49:58;;;;;;;19.27;18.37;;;23.70;16.30;;;;;;6214680;23;20391;-73
2022/07/19 06:52:25;;;;;;;18.47;17.57;;;23.70;16.60;;;;;;6214760;23;20386;-73
2022/07/19 06:54:51;;;;;;;19.20;18.30;;;23.80;16.90;;;;;;6214990;23;20414;-73
2022/07/19 06:57:17;;;;;;;19.47;18.57;;;23.80;16.80;;;;;;6214554;23;20375;-73
2022/07/19 06:59:42;;;;;;;20.50;19.50;;;23.90;16.80;;;;;;6214757;23;20481;-73
2022/07/19 07:02:08;;;;;;;20.03;18.60;;;23.90;16.60;;;;;;6216249;23;20178;-73
2022/07/19 07:04:37;;;;;;;19.83;18.87;;;24.10;15.90;;;;;;6214307;23;20414;-73
2022/07/19 07:07:02;;;;;;;19.60;18.40;;;24.20;16.20;;;;;;6214937;23;20502;-73
2022/07/19 07:09:28;;;;;;;19.87;18.23;;;24.50;16.10;;;;;;6214450;23;20410;-73
2022/07/19 07:11:54;;;;;;;21.33;19.37;;;24.40;16.10;;;;;;6214102;23;20498;-73
2022/07/19 07:14:20;;;;;;;18.77;17.97;;;24.30;16.00;;;;;;6214435;23;20190;-73
2022/07/19 07:16:46;;;;;;;20.40;19.27;;;24.30;16.00;;;;;;6214710;23;20852;-73
2022/07/19 07:19:11;;;;;;;19.63;18.50;;;24.40;16.00;;;;;;6214385;23;20229;-73
2022/07/19 07:21:40;;;;;;;19.17;18.17;;;24.50;16.10;;;;;;6214053;23;20206;-73
2022/07/19 07:24:06;;;;;;;20.10;18.97;;;24.80;15.60;;;;;;6214800;23;20167;-73
2022/07/19 07:26:32;;;;;;;19.70;18.40;;;24.80;16.30;;;;;;6214340;23;20433;-73
2022/07/19 07:28:58;;;;;;;19.00;18.20;;;24.80;15.60;;;;;;6214257;23;20160;-73
2022/07/19 07:31:24;;;;;;;20.40;19.10;;;25.00;14.80;;;;;;6214235;23;20744;-73
2022/07/19 07:33:51;;;;;;;21.00;19.50;;;25.30;14.10;;;;;;6214163;23;20556;-73
2022/07/19 07:36:17;;;;;;;18.70;17.87;;;25.30;14.40;;;;;;6216207;23;20429;-73
2022/07/19 07:38:43;;;;;;;19.50;18.20;;;25.10;14.70;;;;;;6215369;23;20960;-73
2022/07/19 07:41:09;;;;;;;19.67;18.30;;;25.10;15.00;;;;;;6214312;23;20409;-73
2022/07/19 07:43:36;;;;;;;19.30;17.83;;;25.10;15.30;;;;;;6214577;23;20180;-74
2022/07/19 07:46:02;;;;;;;19.27;18.23;;;25.30;14.10;;;;;;6214231;23;20414;-74
2022/07/19 07:48:28;;;;;;;18.50;17.70;;;25.70;14.60;;;;;;6215491;23;20425;-76
2022/07/19 07:50:53;;;;;;;19.60;18.60;;;25.50;14.80;;;;;;6215402;23;20154;-76
2022/07/19 07:53:19;;;;;;;18.40;17.43;;;25.40;14.90;;;;;;6213925;23;20391;-77
2022/07/19 07:55:45;;;;;;;20.20;18.63;;;25.50;15.40;;;;;;6213683;23;20158;-73
2022/07/19 07:58:12;;;;;;;19.80;18.80;;;25.70;14.50;;;;;;6215565;23;20371;-73
2022/07/19 08:00:39;;;;;;;19.53;18.20;;;25.80;14.50;;;;;;6213709;23;20187;-78
2022/07/19 08:03:05;;;;;;;19.00;18.10;;;25.70;14.10;;;;;;6214142;23;20845;-75
2022/07/19 08:05:31;;;;;;;19.20;18.30;;;26.10;13.00;;;;;;6214269;23;20387;-77
2022/07/19 08:07:58;;;;;;;19.47;18.13;;;26.00;13.10;;;;;;6214557;23;20375;-75
2022/07/19 08:10:27;;;;;;;18.70;17.83;;;26.00;13.20;;;;;;6213768;23;20394;-75
2022/07/19 08:12:53;;;;;;;18.40;17.50;;;26.00;13.10;;;;;;6213898;23;20403;-74
2022/07/19 08:15:20;;;;;;;18.13;17.33;;;26.40;11.80;;;;;;6214363;23;20391;-75
2022/07/19 08:17:46;;;;;;;18.53;17.40;;;26.20;12.70;;;;;;6213911;23;20382;-73
2022/07/19 08:20:13;;;;;;;18.33;17.47;;;26.40;11.80;;;;;;6213524;23;20427;-73
2022/07/19 08:22:39;;;;;;;16.83;16.17;;;26.60;11.30;;;;;;6215320;23;20374;-74
2022/07/19 08:25:06;;;;;;;16.57;15.77;;;26.60;9.50;;;;;;6213810;23;20371;-73
2022/07/19 08:27:33;;;;;;;16.37;15.77;;;26.60;8.40;;;;;;6213652;23;20387;-73
2022/07/19 08:29:59;;;;;;;16.70;16.10;;;26.70;8.40;;;;;;6213586;23;20379;-74
2022/07/19 08:32:25;;;;;;;20.07;18.90;;;27.00;7.60;;;;;;6215309;23;20391;-74
2022/07/19 08:34:50;;;;;;;16.83;16.03;;;27.70;6.60;;;;;;6213625;23;20379;-74
2022/07/19 08:37:16;;;;;;;17.67;16.73;;;27.70;6.50;;;;;;6213892;23;20156;-73
2022/07/19 08:39:42;;;;;;;17.20;16.37;;;28.50;4.80;;;;;;6213750;23;20457;-73
2022/07/19 08:42:09;;;;;;;17.87;16.80;;;28.50;4.80;;;;;;6213769;23;20163;-73
2022/07/19 08:44:39;;;;;;;17.30;16.50;;;28.50;5.60;;;;;;6213873;23;20187;-73
2022/07/19 08:47:06;;;;;;;17.30;16.57;;;28.80;4.90;;;;;;6213368;23;20864;-73
2022/07/19 08:49:32;;;;;;;17.13;16.43;;;28.90;5.00;;;;;;6215154;23;20383;-73
2022/07/19 08:51:58;;;;;;;16.43;15.73;;;29.00;4.70;;;;;;6213849;23;20474;-73
2022/07/19 08:54:24;;;;;;;16.97;16.23;;;29.20;4.40;;;;;;6215180;23;20375;-73
2022/07/19 08:59:34;;;;;;;16.93;16.33;;;28.90;4.80;;;;;;6214981;23;20457;-73
2022/07/19 09:02:00;;;;;;;16.67;16.00;;;28.80;4.90;;;;;;6213517;23;20375;-73
2022/07/19 09:04:28;;;;;;;18.43;17.57;;;29.10;4.40;;;;;;6213482;23;20515;-73
2022/07/19 09:06:58;;;;;;;17.80;17.20;;;29.30;4.20;;;;;;6213294;23;20593;-74
2022/07/19 09:09:26;;;;;;;18.00;17.27;;;29.20;4.80;;;;;;6213414;23;20714;-74
2022/07/19 09:11:52;;;;;;;17.60;16.80;;;29.00;4.70;;;;;;6212984;23;20453;-73
2022/07/19 09:14:27;;;;;;;18.20;17.13;;;29.20;4.40;;;;;;6213300;23;20375;-73
2022/07/19 09:17:00;;;;;;;17.03;16.33;;;29.50;4.40;;;;;;6213177;23;20414;-73
2022/07/19 09:19:27;;;;;;;17.20;16.50;;;29.60;3.70;;;;;;6213238;23;20426;-73
2022/07/19 09:22:00;;;;;;;17.47;16.67;;;29.40;3.90;;;;;;6213071;23;20859;-74
2022/07/19 09:24:28;;;;;;;17.60;16.90;;;29.10;4.30;;;;;;6213324;23;20371;-73
2022/07/19 09:26:59;;;;;;;16.93;16.03;;;29.20;4.50;;;;;;6213229;23;20462;-73
2022/07/19 09:29:26;;;;;;;17.30;16.50;;;29.60;3.50;;;;;;6213334;23;20375;-73
2022/07/19 09:32:04;;;;;;;16.60;15.90;;;29.40;4.30;;;;;;6213101;23;20391;-73
2022/07/19 09:34:32;;;;;;;16.53;15.83;;;29.70;3.70;;;;;;6213130;23;20409;-73
2022/07/19 09:37:32;;;;;;;16.70;15.83;;;29.90;3.40;;;;;;6213294;23;20398;-73
2022/07/19 09:40:04;;;;;;;17.13;16.53;;;30.30;1.80;;;;;;6164724;23;20438;-73
2022/07/19 09:42:41;;;;;;;17.17;16.47;;;30.30;1.80;;;;;;6212952;23;20418;-73
2022/07/19 09:45:10;;;;;;;17.90;17.00;;;30.30;1.70;;;;;;6215066;23;20383;-74
2022/07/19 09:47:41;;;;;;;19.17;17.97;;;30.30;1.10;;;;;;6214274;23;20411;-74
2022/07/19 09:50:16;;;;;;;17.30;16.60;;;30.60;1.20;;;;;;6212995;23;20861;-73
2022/07/19 09:52:43;;;;;;;18.43;17.53;;;30.60;1.00;;;;;;6213890;23;20473;-73
2022/07/19 09:55:10;;;;;;;17.47;16.63;;;31.00;1.00;;;;;;6214028;23;20764;-74
2022/07/19 09:57:39;;;;;;;17.10;16.40;;;30.80;1.00;;;;;;6216077;23;20860;-73
2022/07/19 10:00:06;;;;;;;18.30;17.40;;;30.70;1.00;;;;;;6214007;23;20764;-73
2022/07/19 10:02:37;;;;;;;17.57;16.67;;;31.20;1.00;;;;;;6214831;23;20375;-74
2022/07/19 10:05:04;;;;;;;19.23;18.37;;;31.00;1.00;;;;;;6216045;23;20639;-74
2022/07/19 10:07:32;;;;;;;18.90;18.00;;;31.10;1.00;;;;;;6212992;23;20380;-73
2022/07/19 10:10:02;;;;;;;18.33;17.33;;;31.30;1.00;;;;;;6212852;23;20494;-74
2022/07/19 10:12:29;;;;;;;17.90;17.10;;;31.50;1.00;;;;;;6212837;23;20407;-74
2022/07/19 10:14:55;;;;;;;17.60;16.80;;;31.60;1.00;;;;;;6212912;23;20386;-73
2022/07/19 10:17:32;;;;;;;17.50;16.80;;;31.80;1.00;;;;;;6212791;23;20461;-74
2022/07/19 10:19:58;;;;;;;18.77;17.97;;;31.60;1.00;;;;;;6212609;23;20494;-73
2022/07/19 10:22:26;;;;;;;18.13;17.17;;;31.80;1.00;;;;;;6213211;23;20399;-73
2022/07/19 10:25:00;;;;;;;17.10;16.30;;;32.00;1.00;;;;;;6212866;23;20410;-74
2022/07/19 10:27:25;;;;;;;17.20;16.40;;;32.10;1.00;;;;;;6213015;23;20399;-73
2022/07/19 10:30:10;;;;;;;17.67;16.73;;;32.30;1.00;;;;;;6212634;23;20387;-73
2022/07/19 10:32:44;;;;;;;17.63;16.50;;;32.30;1.00;;;;;;6212829;23;20263;-73
2022/07/19 10:35:25;;;;;;;16.93;16.23;;;32.50;1.00;;;;;;6212863;23;20375;-73
2022/07/19 10:38:00;;;;;;;17.33;16.30;;;32.50;1.00;;;;;;6212754;23;20767;-73
2022/07/19 10:40:45;;;;;;;17.10;16.20;;;32.50;1.00;;;;;;6212646;23;20457;-73
2022/07/19 10:43:12;;;;;;;18.33;17.20;;;32.60;1.00;;;;;;6212759;23;20445;-73
2022/07/19 10:45:40;;;;;;;17.30;16.50;;;32.40;1.00;;;;;;6212759;23;20386;-73
2022/07/19 10:48:08;;;;;;;16.77;16.17;;;32.60;1.00;;;;;;6212855;23;20701;-73
2022/07/19 10:50:47;;;;;;;17.50;16.70;;;32.90;1.00;;;;;;6212318;23;20437;-73
2022/07/19 10:53:55;;;;;;;17.60;16.63;;;32.50;1.00;;;;;;6212932;23;20819;-73
2022/07/19 10:56:27;;;;;;;18.53;17.53;;;32.90;1.00;;;;;;6126803;23;20882;-73
2022/07/19 10:58:57;;;;;;;16.90;16.20;;;32.70;1.00;;;;;;6126943;23;20432;-73
2022/07/19 11:01:26;;;;;;;16.60;15.70;;;32.70;1.00;;;;;;6173183;23;20384;-73
2022/07/19 11:03:53;;;;;;;16.63;15.73;;;32.40;1.00;;;;;;6212804;23;20387;-74
2022/07/19 11:06:28;;;;;;;16.60;15.70;;;32.10;1.00;;;;;;6212803;23;20380;-74
2022/07/19 11:08:56;;;;;;;17.40;16.30;;;32.50;1.00;;;;;;6212614;23;20882;-73
2022/07/19 11:11:23;;;;;;;17.40;16.70;;;32.50;1.00;;;;;;6212601;23;20694;-73
2022/07/19 11:13:55;;;;;;;17.33;16.50;;;32.60;1.00;;;;;;6212433;23;20414;-73
2022/07/19 11:16:24;;;;;;;17.40;16.47;;;32.60;1.00;;;;;;6212478;23;20433;-73
2022/07/19 11:18:50;;;;;;;17.70;16.90;;;32.50;1.00;;;;;;6212480;23;20423;-73
2022/07/19 11:21:16;;;;;;;18.50;17.70;;;32.40;1.00;;;;;;6212401;23;20688;-73
2022/07/19 11:23:44;;;;;;;18.13;17.23;;;32.50;1.00;;;;;;6212795;23;20155;-74
2022/07/19 11:26:18;;;;;;;16.73;15.90;;;32.40;1.00;;;;;;6213289;23;20466;-74
2022/07/19 11:28:45;;;;;;;17.40;16.20;;;32.70;1.00;;;;;;6213484;23;20425;-74
2022/07/19 11:31:22;;;;;;;17.20;16.40;;;32.60;1.00;;;;;;6214953;23;20852;-73
2022/07/19 11:33:53;;;;;;;16.37;15.67;;;32.70;1.00;;;;;;6214981;23;20379;-73
2022/07/19 11:36:20;;;;;;;15.87;15.27;;;32.70;1.00;;;;;;6215324;23;20429;-73
2022/07/19 11:38:58;;;;;;;18.20;17.30;;;32.80;1.00;;;;;;6214547;23;20426;-74
2022/07/19 11:41:30;;;;;;;17.00;16.40;;;32.40;1.00;;;;;;6215637;23;20401;-74
2022/07/19 11:44:03;;;;;;;17.23;16.37;;;32.80;1.00;;;;;;6215187;23;20470;-74
2022/07/19 11:46:44;;;;;;;17.03;16.23;;;33.00;1.00;;;;;;6214618;23;20708;-74
2022/07/19 11:49:13;;;;;;;16.27;15.57;;;32.80;1.00;;;;;;6214539;23;20441;-74
2022/07/19 11:51:39;;;;;;;16.77;16.07;;;32.90;1.00;;;;;;6214324;23;20386;-74
2022/07/19 11:54:07;;;;;;;17.17;16.13;;;32.70;1.00;;;;;;6214736;23;20770;-74
2022/07/19 11:56:34;;;;;;;17.00;16.30;;;32.50;1.00;;;;;;6214765;23;20180;-74
2022/07/19 11:59:05;;;;;;;16.60;15.90;;;32.80;1.00;;;;;;6216084;23;20420;-74
2022/07/19 12:01:33;;;;;;;16.60;15.80;;;33.00;1.00;;;;;;6214439;23;20371;-74
2022/07/19 12:04:03;;;;;;;16.87;16.13;;;33.00;1.00;;;;;;6215109;23;20715;-74
2022/07/19 12:06:47;;;;;;;16.67;16.07;;;32.70;1.00;;;;;;6215086;23;20699;-74
2022/07/19 12:09:26;;;;;;;17.10;16.30;;;32.60;1.00;;;;;;6214503;23;20391;-74
2022/07/19 12:11:53;;;;;;;19.30;18.30;;;32.60;1.00;;;;;;6216275;23;20689;-74
2022/07/19 12:14:21;;;;;;;17.60;16.80;;;32.80;1.00;;;;;;6224994;23;20372;-74
2022/07/19 12:17:08;;;;;;;17.07;16.27;;;33.00;1.00;;;;;;6214485;23;20383;-74
2022/07/19 12:19:37;;;;;;;16.30;15.70;;;33.40;1.00;;;;;;6214201;23;20418;-74
2022/07/19 12:22:03;;;;;;;16.57;15.77;;;33.00;1.00;;;;;;6214333;23;20760;-74
2022/07/19 12:24:32;;;;;;;17.23;16.53;;;32.60;1.00;;;;;;6215881;23;20447;-75
2022/07/19 12:27:00;;;;;;;16.63;15.70;;;32.90;1.00;;;;;;6214203;23;20235;-75
2022/07/19 12:29:46;;;;;;;16.30;15.60;;;32.90;1.00;;;;;;6213831;23;20383;-74
2022/07/19 12:32:29;;;;;;;16.50;15.37;;;32.60;1.00;;;;;;6213585;23;20386;-74
2022/07/19 12:35:11;;;;;;;17.27;16.07;;;32.40;1.00;;;;;;6214162;23;20363;-74
2022/07/19 12:37:43;;;;;;;16.73;16.03;;;32.60;1.00;;;;;;6214149;23;20600;-74